Time;durP1;ratioP1;P1;durP2;ratioP2;P2;SDS_P1;SDS_P2;PMS_P1;PMS_P2;Temp;Humidity;BMP_temperature;BMP_pressure;BME280_temperature;BME280_humidity;BME280_pressure;Samples;Min_cycle;Max_cycle;Signal;HPM_P1;HPM_P2
2021/05/18 00:00:09;;;;;;;3.75;1.70;;;10.00;90.70;;;;;;4829699;29;20492;-74
2021/05/18 00:02:36;;;;;;;4.50;1.58;;;10.00;90.70;;;;;;4861282;29;20049;-74
2021/05/18 00:05:05;;;;;;;4.50;1.73;;;10.00;90.80;;;;;;4844687;29;20484;-74
2021/05/18 00:07:32;;;;;;;3.58;1.42;;;9.90;90.80;;;;;;4861784;29;20046;-74
2021/05/18 00:12:45;;;;;;;3.28;1.42;;;9.90;90.80;;;;;;4861344;29;20045;-74
2021/05/18 00:15:18;;;;;;;5.07;1.65;;;9.90;91.10;;;;;;4840892;29;20050;-74
2021/05/18 00:17:45;;;;;;;9.15;1.90;;;9.90;90.80;;;;;;4827277;29;20102;-74
2021/05/18 00:20:15;;;;;;;3.63;1.45;;;9.90;90.90;;;;;;4814635;29;20061;-75
2021/05/18 00:22:42;;;;;;;5.68;1.48;;;9.90;90.90;;;;;;4860662;29;20072;-74
2021/05/18 00:25:10;;;;;;;3.35;1.60;;;9.80;90.90;;;;;;4845205;29;20080;-74
2021/05/18 00:27:37;;;;;;;3.35;1.20;;;9.80;90.90;;;;;;4844974;29;20061;-74
2021/05/18 00:30:06;;;;;;;3.90;1.67;;;9.80;91.00;;;;;;4840824;29;20045;-74
2021/05/18 00:32:33;;;;;;;4.07;1.77;;;9.80;91.00;;;;;;4845003;29;20045;-74
2021/05/18 00:35:00;;;;;;;4.25;2.00;;;9.80;91.00;;;;;;4861154;29;20118;-74
2021/05/18 00:37:28;;;;;;;3.40;1.48;;;9.70;91.00;;;;;;4860225;29;20098;-74
2021/05/18 00:39:55;;;;;;;3.70;1.60;;;9.70;91.00;;;;;;4861393;29;20638;-74
2021/05/18 00:42:22;;;;;;;4.35;1.88;;;9.70;91.00;;;;;;4860069;29;20102;-74
2021/05/18 00:44:50;;;;;;;4.80;1.98;;;9.70;91.00;;;;;;4853016;29;20130;-74
2021/05/18 00:47:17;;;;;;;3.42;1.67;;;9.70;91.00;;;;;;4849251;29;20053;-74
2021/05/18 00:49:46;;;;;;;3.95;1.65;;;9.70;91.00;;;;;;4827117;29;20452;-74
2021/05/18 00:52:15;;;;;;;2.95;1.58;;;9.70;91.00;;;;;;4829080;29;20336;-74
2021/05/18 00:54:51;;;;;;;5.38;1.98;;;9.70;91.00;;;;;;4844076;29;20512;-74
2021/05/18 01:00:05;;;;;;;3.08;1.20;;;9.80;91.00;;;;;;4840514;29;20042;-74
2021/05/18 01:02:32;;;;;;;4.45;1.73;;;9.80;90.90;;;;;;4860797;29;20117;-74
2021/05/18 01:05:16;;;;;;;4.13;1.80;;;9.90;90.90;;;;;;4844685;29;20053;-74
2021/05/18 01:07:43;;;;;;;5.13;2.47;;;9.90;90.90;;;;;;4846883;29;20045;-74
2021/05/18 01:10:11;;;;;;;3.42;1.73;;;9.90;91.00;;;;;;4844409;29;20133;-75
2021/05/18 01:12:39;;;;;;;4.00;1.77;;;9.90;91.00;;;;;;4856451;29;20034;-74
2021/05/18 01:15:07;;;;;;;4.93;2.38;;;9.90;91.00;;;;;;4828578;29;20049;-74
2021/05/18 01:17:34;;;;;;;4.75;2.25;;;9.90;91.00;;;;;;4839310;29;20059;-72
2021/05/18 01:20:12;;;;;;;3.78;1.80;;;9.90;91.00;;;;;;4843852;29;20085;-72
2021/05/18 01:22:47;;;;;;;5.82;2.45;;;10.00;91.00;;;;;;4829007;29;20045;-72
2021/05/18 01:25:17;;;;;;;4.60;2.05;;;10.00;91.00;;;;;;4860421;29;20045;-72
2021/05/18 01:27:46;;;;;;;4.80;1.90;;;10.00;91.00;;;;;;4840141;29;20107;-72
2021/05/18 01:30:14;;;;;;;4.28;2.00;;;10.00;91.00;;;;;;4840080;29;20046;-72
2021/05/18 01:32:43;;;;;;;3.92;2.15;;;10.10;91.00;;;;;;4839156;29;20049;-72
2021/05/18 01:35:12;;;;;;;5.05;2.42;;;10.10;91.30;;;;;;4829248;29;20041;-72
2021/05/18 01:37:42;;;;;;;4.10;2.20;;;10.10;91.00;;;;;;4843807;29;20055;-72
2021/05/18 01:43:01;;;;;;;4.35;2.28;;;10.20;90.90;;;;;;4815739;29;20050;-72
2021/05/18 01:45:30;;;;;;;4.00;1.52;;;10.30;90.90;;;;;;4859470;29;20053;-72
2021/05/18 01:48:08;;;;;;;3.45;1.85;;;10.30;90.90;;;;;;4830981;29;20081;-71
2021/05/18 01:50:44;;;;;;;3.95;1.85;;;10.40;90.80;;;;;;4814742;29;20049;-72
2021/05/18 01:53:15;;;;;;;2.97;1.20;;;10.40;90.80;;;;;;4843287;29;20049;-72
2021/05/18 01:58:13;;;;;;;2.90;1.38;;;10.40;90.80;;;;;;4839991;29;20046;-71
2021/05/18 02:00:51;;;;;;;3.53;1.13;;;10.50;90.80;;;;;;4840485;29;20059;-71
2021/05/18 02:03:27;;;;;;;3.25;1.38;;;10.50;90.80;;;;;;4860083;29;20064;-71
2021/05/18 02:05:56;;;;;;;4.38;1.70;;;10.50;90.80;;;;;;4859736;29;20565;-72
2021/05/18 02:08:32;;;;;;;4.63;1.50;;;10.50;90.80;;;;;;4829257;29;20524;-72
2021/05/18 02:11:02;;;;;;;4.38;1.40;;;10.50;90.80;;;;;;4828411;29;20048;-72
2021/05/18 02:13:31;;;;;;;7.28;1.60;;;10.50;90.80;;;;;;4836473;29;20132;-71
2021/05/18 02:16:12;;;;;;;3.45;1.92;;;10.50;90.80;;;;;;4829780;29;20124;-72
2021/05/18 02:26:34;;;;;;;4.70;1.90;;;10.60;90.90;;;;;;4841549;29;20095;-72
2021/05/18 02:29:03;;;;;;;5.55;2.17;;;10.60;90.90;;;;;;4843607;29;20446;-72
2021/05/18 02:31:32;;;;;;;4.50;2.13;;;10.60;90.90;;;;;;4842682;29;20052;-72
2021/05/18 02:34:09;;;;;;;4.40;2.05;;;10.60;90.90;;;;;;4842844;29;20132;-72
2021/05/18 02:36:39;;;;;;;4.65;2.35;;;10.60;90.90;;;;;;4859101;29;20540;-71
2021/05/18 02:39:06;;;;;;;6.13;2.35;;;10.70;90.90;;;;;;4827043;29;20049;-72
2021/05/18 02:41:35;;;;;;;6.28;2.10;;;10.70;90.90;;;;;;4826133;29;20141;-72
2021/05/18 02:44:07;;;;;;;4.47;2.00;;;10.70;90.90;;;;;;4843286;29;20060;-71
2021/05/18 02:49:27;;;;;;;4.80;2.20;;;10.70;90.90;;;;;;4863334;29;20082;-71
2021/05/18 02:51:54;;;;;;;4.35;2.60;;;10.80;90.90;;;;;;4846332;29;20101;-72
2021/05/18 02:54:24;;;;;;;4.55;2.15;;;10.80;90.90;;;;;;4840135;29;20534;-72
2021/05/18 02:56:54;;;;;;;7.68;2.20;;;10.80;90.90;;;;;;4845841;29;20101;-72
2021/05/18 02:59:21;;;;;;;4.53;2.13;;;10.80;90.90;;;;;;4845649;29;20502;-71
2021/05/18 03:01:54;;;;;;;6.57;1.88;;;10.80;90.90;;;;;;4862817;29;20046;-72
2021/05/18 03:04:22;;;;;;;5.70;2.20;;;10.80;91.20;;;;;;4835735;29;20084;-72
2021/05/18 03:06:50;;;;;;;5.15;2.53;;;10.80;90.90;;;;;;4846113;29;20045;-71
2021/05/18 03:09:20;;;;;;;5.25;2.17;;;10.80;90.90;;;;;;4831760;29;20056;-71
2021/05/18 03:11:48;;;;;;;5.53;2.10;;;10.80;90.90;;;;;;4828933;29;20053;-72
2021/05/18 03:14:16;;;;;;;4.68;2.38;;;10.80;91.00;;;;;;4862545;29;20045;-72
2021/05/18 03:16:45;;;;;;;4.32;2.15;;;10.80;90.90;;;;;;4837895;29;20038;-72
2021/05/18 03:19:13;;;;;;;5.03;2.40;;;10.90;91.00;;;;;;4846252;29;20103;-72
2021/05/18 03:21:43;;;;;;;5.07;2.05;;;10.90;91.00;;;;;;4845357;29;20130;-72
2021/05/18 03:24:11;;;;;;;5.85;2.78;;;10.90;91.00;;;;;;4862251;29;20085;-73
2021/05/18 03:26:47;;;;;;;4.13;2.05;;;10.90;91.00;;;;;;4846543;29;20074;-73
2021/05/18 03:29:23;;;;;;;6.10;2.28;;;10.90;91.00;;;;;;4829501;29;20103;-72
2021/05/18 03:34:37;;;;;;;5.13;2.38;;;11.00;91.00;;;;;;4837246;29;20763;-72
2021/05/18 03:37:19;;;;;;;4.97;2.15;;;11.00;91.00;;;;;;4845303;29;20052;-73
2021/05/18 03:39:49;;;;;;;3.90;1.65;;;11.00;91.00;;;;;;4859073;29;20106;-72
2021/05/18 03:42:31;;;;;;;5.25;2.05;;;11.00;91.00;;;;;;4845845;29;20136;-72
2021/05/18 03:45:07;;;;;;;4.47;2.30;;;11.00;91.00;;;;;;4858808;29;20450;-73
2021/05/18 04:17:25;;;;;;;4.30;1.88;;;11.20;91.10;;;;;;4844981;29;20046;-73
2021/05/18 04:58:58;;;;;;;6.93;3.33;;;11.50;91.10;;;;;;4841438;29;20094;-72
2021/05/18 05:01:03;;;;;;;6.18;3.38;;;11.50;91.10;;;;;;4849905;29;20041;-72
2021/05/18 05:16:43;;;;;;;6.00;3.25;;;11.70;91.10;;;;;;4860334;29;20113;-72
2021/05/18 05:19:10;;;;;;;8.07;3.30;;;11.60;91.20;;;;;;4828627;29;20096;-72
2021/05/18 05:21:37;;;;;;;4.97;2.90;;;11.60;91.20;;;;;;4828411;29;20065;-73
2021/05/18 05:24:05;;;;;;;8.60;3.83;;;11.60;91.30;;;;;;4837544;29;20503;-73
2021/05/18 05:26:35;;;;;;;6.05;2.92;;;11.50;91.40;;;;;;4844182;29;20050;-73
2021/05/18 05:29:03;;;;;;;5.07;2.65;;;11.50;91.40;;;;;;4829537;29;20517;-73
2021/05/18 05:31:31;;;;;;;6.28;3.70;;;11.50;91.50;;;;;;4843962;29;20053;-73
2021/05/18 05:33:58;;;;;;;8.10;4.43;;;11.50;91.50;;;;;;4861147;29;20053;-74
2021/05/18 05:36:25;;;;;;;5.43;3.10;;;11.50;91.50;;;;;;4842941;29;20073;-72
2021/05/18 05:38:59;;;;;;;6.90;3.50;;;11.40;91.60;;;;;;4854452;29;20098;-72
2021/05/18 05:41:26;;;;;;;7.15;3.17;;;11.50;91.60;;;;;;4843330;29;20123;-72
2021/05/18 05:43:53;;;;;;;8.00;2.95;;;11.40;91.60;;;;;;4843966;29;20037;-72
2021/05/18 05:46:20;;;;;;;6.35;3.70;;;11.50;91.70;;;;;;4842910;29;20516;-72
2021/05/18 05:48:53;;;;;;;5.95;3.47;;;11.50;91.70;;;;;;4860256;29;20045;-72
2021/05/18 05:51:25;;;;;;;5.10;2.65;;;11.50;91.70;;;;;;4843214;29;20136;-73
2021/05/18 05:53:53;;;;;;;6.67;3.77;;;11.60;91.80;;;;;;4822187;29;20159;-72
2021/05/18 05:56:21;;;;;;;7.90;3.65;;;11.60;91.80;;;;;;4843743;29;20045;-72
2021/05/18 05:58:49;;;;;;;7.88;4.47;;;11.60;91.70;;;;;;4859766;29;20053;-72
2021/05/18 06:01:16;;;;;;;8.32;4.55;;;11.70;91.70;;;;;;4859548;29;20045;-72
2021/05/18 06:03:44;;;;;;;8.23;4.55;;;11.70;91.70;;;;;;4859433;29;20486;-72
2021/05/18 06:06:11;;;;;;;7.90;4.72;;;11.70;91.70;;;;;;4842687;29;20118;-72
2021/05/18 06:08:42;;;;;;;7.57;4.43;;;11.80;91.70;;;;;;4859589;29;20057;-72
2021/05/18 06:11:21;;;;;;;7.78;4.68;;;11.90;91.70;;;;;;4847248;29;20052;-72
2021/05/18 06:48:18;;;;;;;19.95;12.25;;;12.30;91.80;;;;;;4842121;29;20053;-73
2021/05/18 06:50:45;;;;;;;21.25;13.57;;;12.30;91.70;;;;;;4859540;29;20037;-73
2021/05/18 06:53:13;;;;;;;17.50;11.27;;;12.40;91.70;;;;;;4843022;29;20054;-74
2021/05/18 06:55:40;;;;;;;17.05;11.43;;;12.50;91.90;;;;;;4859151;29;20397;-72
2021/05/18 06:58:14;;;;;;;17.95;11.60;;;12.60;91.50;;;;;;4843327;29;20458;-73
2021/05/18 07:00:42;;;;;;;20.27;12.68;;;12.70;91.50;;;;;;4842759;29;20050;-73
2021/05/18 07:03:16;;;;;;;22.60;13.85;;;12.80;91.30;;;;;;4859549;29;20185;-73
2021/05/18 07:10:45;;;;;;;19.30;12.52;;;13.00;91.20;;;;;;4826046;29;20102;-74
2021/05/18 07:13:15;;;;;;;16.75;10.75;;;13.10;91.20;;;;;;4818242;29;20109;-73
2021/05/18 07:15:42;;;;;;;19.45;12.27;;;13.10;91.20;;;;;;4827561;29;20050;-73
2021/05/18 07:18:10;;;;;;;17.33;11.10;;;13.20;91.10;;;;;;4859692;29;20042;-73
2021/05/18 07:20:37;;;;;;;16.08;11.30;;;13.40;91.10;;;;;;4827530;29;20079;-73
2021/05/18 07:23:14;;;;;;;17.63;11.85;;;13.40;91.00;;;;;;4843070;29;20565;-72
2021/05/18 07:25:41;;;;;;;14.82;10.00;;;13.50;90.90;;;;;;4844569;29;20045;-72
2021/05/18 07:28:09;;;;;;;15.23;10.35;;;13.50;90.90;;;;;;4855505;29;20066;-72
2021/05/18 07:30:38;;;;;;;13.50;8.93;;;13.50;90.90;;;;;;4841494;29;20165;-73
2021/05/18 07:33:06;;;;;;;15.07;10.55;;;13.40;90.90;;;;;;4829799;29;21703;-73
2021/05/18 07:35:34;;;;;;;19.58;12.38;;;13.20;90.90;;;;;;4845876;29;20059;-74
2021/05/18 07:38:03;;;;;;;18.65;13.35;;;13.10;90.90;;;;;;4863456;29;20068;-75
2021/05/18 07:40:31;;;;;;;16.27;11.00;;;12.70;91.20;;;;;;4846828;29;20093;-75
2021/05/18 07:43:00;;;;;;;14.40;8.63;;;12.50;91.30;;;;;;4840023;29;20049;-75
2021/05/18 07:45:29;;;;;;;10.82;6.63;;;12.30;91.50;;;;;;4846951;29;20806;-74
2021/05/18 07:48:17;;;;;;;9.18;5.05;;;12.20;91.70;;;;;;4844336;29;20144;-75
2021/05/18 08:07:16;;;;;;;3.67;2.03;;;11.90;92.20;;;;;;4846942;29;20053;-75
2021/05/18 08:09:52;;;;;;;5.78;3.15;;;12.00;92.20;;;;;;4837796;29;20049;-75
2021/05/18 08:12:19;;;;;;;5.28;3.20;;;12.10;92.00;;;;;;4846685;29;20506;-75
2021/05/18 08:14:54;;;;;;;6.65;3.40;;;12.20;91.90;;;;;;4854341;29;20038;-72
2021/05/18 08:17:27;;;;;;;6.97;3.88;;;12.20;91.90;;;;;;4859659;29;20101;-73
2021/05/18 08:23:23;;;;;;;5.38;3.33;;;12.30;91.90;;;;;;4858850;29;20041;-74
2021/05/18 08:48:29;;;;;;;10.55;7.38;;;13.00;91.90;;;;;;4831315;29;20503;-75
2021/05/18 09:02:01;;;;;;;10.15;6.25;;;13.20;91.70;;;;;;4843955;29;20052;-75
2021/05/18 10:34:39;;;;;;;6.03;3.40;;;14.20;88.20;;;;;;4844253;29;20198;-75
2021/05/18 10:37:44;;;;;;;4.45;2.30;;;14.40;87.80;;;;;;4859974;29;20049;-74
2021/05/18 10:40:25;;;;;;;5.78;2.45;;;14.60;87.80;;;;;;4843716;29;20068;-75
2021/05/18 10:43:23;;;;;;;5.57;3.67;;;14.80;87.20;;;;;;4860520;29;20053;-76
2021/05/18 10:45:57;;;;;;;6.00;3.33;;;14.70;86.10;;;;;;4825903;29;20050;-76
2021/05/18 10:48:52;;;;;;;6.75;3.13;;;14.70;86.40;;;;;;4861944;29;20120;-76
2021/05/18 10:51:33;;;;;;;5.50;2.78;;;14.90;86.60;;;;;;4839092;29;20057;-76
2021/05/18 10:54:21;;;;;;;5.38;2.63;;;15.10;87.20;;;;;;4858913;29;20045;-76
2021/05/18 10:57:01;;;;;;;4.40;2.30;;;15.30;86.90;;;;;;4842454;29;20041;-75
2021/05/18 10:59:32;;;;;;;7.05;4.18;;;15.50;86.80;;;;;;4858274;29;20061;-76
2021/05/18 11:02:01;;;;;;;6.28;3.58;;;15.50;85.20;;;;;;4842171;29;20053;-77
2021/05/18 11:04:39;;;;;;;5.30;3.28;;;15.50;85.40;;;;;;4841676;29;20780;-78
2021/05/18 11:07:09;;;;;;;4.15;2.63;;;15.60;85.50;;;;;;4827905;29;20509;-76
2021/05/18 11:09:37;;;;;;;6.63;3.17;;;15.70;85.70;;;;;;4823071;29;20617;-76
2021/05/18 11:12:10;;;;;;;5.50;2.90;;;15.80;84.20;;;;;;4855287;29;20045;-76
2021/05/18 11:15:03;;;;;;;4.90;2.70;;;15.80;84.00;;;;;;4842102;29;20079;-76
2021/05/18 11:17:34;;;;;;;;;;;15.90;83.80;;;;;;4862038;29;20132;-76
2021/05/18 11:20:13;;;;;;;3.70;2.15;;;15.80;84.00;;;;;;4838491;29;19944;-76
2021/05/18 11:25:37;;;;;;;5.75;2.88;;;16.20;81.60;;;;;;4856111;29;20302;-76
2021/05/18 11:28:10;;;;;;;4.88;3.10;;;16.40;82.00;;;;;;4838107;29;20419;-76
2021/05/18 11:30:37;;;;;;;5.20;2.88;;;16.60;80.40;;;;;;4843900;29;20061;-72
2021/05/18 11:33:05;;;;;;;5.20;2.35;;;16.40;80.10;;;;;;4823946;29;20045;-74
2021/05/18 11:35:34;;;;;;;5.60;2.05;;;16.40;80.60;;;;;;4831974;29;20049;-74
2021/05/18 11:38:04;;;;;;;3.17;1.85;;;16.50;80.30;;;;;;4842116;29;20074;-73
2021/05/18 11:40:48;;;;;;;3.13;1.65;;;16.60;80.10;;;;;;4843435;29;20045;-73
2021/05/18 11:43:20;;;;;;;3.08;1.38;;;16.80;79.90;;;;;;4824168;29;20143;-73
2021/05/18 11:45:50;;;;;;;2.33;1.42;;;16.90;78.90;;;;;;4858255;29;20501;-73
2021/05/18 11:48:20;;;;;;;4.07;1.25;;;17.00;79.10;;;;;;4859323;29;20056;-73
2021/05/18 11:51:05;;;;;;;3.25;1.10;;;17.30;77.90;;;;;;4833587;29;20057;-73
2021/05/18 11:53:41;;;;;;;3.13;1.00;;;17.90;77.50;;;;;;4859055;29;20044;-76
2021/05/18 11:56:26;;;;;;;3.30;1.38;;;18.40;77.00;;;;;;4859884;29;20474;-75
2021/05/18 11:59:10;;;;;;;4.07;1.33;;;18.70;75.70;;;;;;4841877;29;20049;-73
2021/05/18 12:01:48;;;;;;;2.38;1.20;;;18.50;75.80;;;;;;4859217;29;20060;-73
2021/05/18 12:04:23;;;;;;;4.97;1.60;;;18.50;76.30;;;;;;4833735;29;20061;-76
2021/05/18 12:07:00;;;;;;;5.10;2.42;;;18.10;75.70;;;;;;4853450;29;20057;-75
2021/05/18 12:09:32;;;;;;;5.10;2.03;;;17.40;73.30;;;;;;4836862;29;20045;-75
2021/05/18 12:12:02;;;;;;;3.28;1.95;;;16.70;74.40;;;;;;4843560;29;20101;-76
2021/05/18 12:14:30;;;;;;;2.35;1.48;;;16.10;76.30;;;;;;4860369;29;20048;-75
2021/05/18 12:16:58;;;;;;;1.73;0.82;;;15.50;76.70;;;;;;4840818;29;20098;-77
2021/05/18 12:19:25;;;;;;;1.65;0.80;;;15.10;78.20;;;;;;4839925;29;20041;-75
2021/05/18 12:21:55;;;;;;;1.38;0.52;;;14.90;78.90;;;;;;4828377;29;20045;-75
2021/05/18 12:24:27;;;;;;;1.80;0.63;;;15.80;78.70;;;;;;4854692;29;20049;-74
2021/05/18 12:26:57;;;;;;;;;;;16.80;76.70;;;;;;4836239;29;20048;-77
2021/05/18 12:29:26;;;;;;;1.83;0.60;;;17.80;76.70;;;;;;4859585;29;19936;-76
2021/05/18 12:31:53;;;;;;;1.40;0.50;;;18.50;73.90;;;;;;4839244;29;20125;-76
2021/05/18 12:34:29;;;;;;;2.75;0.30;;;19.20;73.10;;;;;;4859915;29;20056;-75
2021/05/18 12:36:56;;;;;;;1.48;0.30;;;19.70;72.00;;;;;;4838230;29;20069;-76
2021/05/18 12:39:30;;;;;;;1.25;0.40;;;20.10;71.50;;;;;;4839240;29;20045;-74
2021/05/18 12:42:02;;;;;;;1.02;0.43;;;20.50;69.20;;;;;;4849250;29;20129;-74
2021/05/18 12:44:31;;;;;;;;;;;20.70;69.40;;;;;;4851419;29;20046;-75
2021/05/18 12:47:00;;;;;;;1.05;0.50;;;21.00;71.40;;;;;;4831133;29;19925;-75
2021/05/18 12:49:32;;;;;;;1.23;0.45;;;21.30;68.00;;;;;;4835320;29;20056;-74
2021/05/18 12:52:12;;;;;;;;;;;21.40;67.70;;;;;;4847875;29;20046;-73
2021/05/18 12:54:57;;;;;;;0.40;0.25;;;21.40;69.20;;;;;;4824908;29;20329;-74
2021/05/18 12:57:28;;;;;;;0.95;0.40;;;21.60;68.60;;;;;;4836461;29;20048;-75
2021/05/18 13:00:00;;;;;;;0.93;0.30;;;22.00;67.20;;;;;;4836784;29;20052;-74
2021/05/18 13:02:47;;;;;;;0.52;0.30;;;22.40;67.30;;;;;;4840515;29;20045;-75
2021/05/18 13:05:16;;;;;;;2.28;0.50;;;22.60;66.40;;;;;;4854374;29;20490;-75
2021/05/18 13:08:05;;;;;;;1.83;0.80;;;22.60;65.30;;;;;;4832309;29;20074;-75
2021/05/18 13:11:04;;;;;;;1.63;0.50;;;22.90;65.10;;;;;;4831391;29;20058;-74
2021/05/18 13:13:38;;;;;;;1.75;0.40;;;22.80;63.90;;;;;;4839299;29;20500;-73
2021/05/18 13:16:29;;;;;;;1.58;0.60;;;22.60;65.10;;;;;;4836200;29;20076;-73
2021/05/18 13:19:01;;;;;;;1.02;0.50;;;21.80;66.40;;;;;;4834385;29;20489;-73
2021/05/18 13:21:50;;;;;;;1.45;0.70;;;20.90;67.70;;;;;;4855143;29;20045;-73
2021/05/18 13:27:14;;;;;;;2.25;0.90;;;19.40;69.20;;;;;;4770660;29;20784;-74
2021/05/18 13:29:41;;;;;;;3.05;1.35;;;18.70;71.00;;;;;;4825413;29;20927;-75
2021/05/18 13:32:08;;;;;;;3.45;1.10;;;18.40;71.80;;;;;;4842720;29;20393;-76
2021/05/18 13:34:41;;;;;;;3.00;1.10;;;18.90;71.70;;;;;;4844587;29;20044;-76
2021/05/18 13:37:08;;;;;;;3.28;1.15;;;20.30;69.70;;;;;;4840529;29;20081;-75
2021/05/18 13:39:35;;;;;;;2.55;1.20;;;21.00;67.70;;;;;;4838485;29;20097;-74
2021/05/18 13:42:03;;;;;;;3.38;1.25;;;21.70;67.10;;;;;;4857254;29;20093;-73
2021/05/18 13:44:30;;;;;;;3.08;1.13;;;21.60;66.20;;;;;;4826170;29;20033;-74
2021/05/18 13:46:57;;;;;;;5.00;1.58;;;21.00;65.20;;;;;;4841568;29;20429;-74
2021/05/18 13:49:25;;;;;;;3.67;1.48;;;20.30;65.50;;;;;;4830167;29;20042;-75
2021/05/18 13:51:52;;;;;;;4.05;1.55;;;20.10;65.70;;;;;;4843875;29;20137;-74
2021/05/18 13:54:36;;;;;;;3.10;1.33;;;20.30;64.90;;;;;;4857155;29;20090;-75
2021/05/18 13:57:03;;;;;;;2.67;0.98;;;19.90;65.20;;;;;;4837994;29;20054;-75
2021/05/18 13:59:30;;;;;;;3.58;1.70;;;19.90;66.60;;;;;;4837915;29;20141;-74
2021/05/18 14:01:58;;;;;;;3.17;1.38;;;20.10;65.40;;;;;;4823163;29;20114;-74
2021/05/18 14:04:25;;;;;;;2.92;1.30;;;21.10;63.60;;;;;;4857045;29;20501;-75
2021/05/18 14:10:02;;;;;;;3.42;1.00;;;21.30;62.70;;;;;;4815031;29;20057;-73
2021/05/18 14:12:29;;;;;;;3.47;1.15;;;21.10;64.20;;;;;;4839201;29;20581;-73
2021/05/18 14:15:03;;;;;;;1.88;0.95;;;21.60;62.10;;;;;;4824643;29;20069;-74
2021/05/18 14:17:30;;;;;;;1.92;1.00;;;21.10;62.00;;;;;;4837267;29;20561;-74
2021/05/18 14:19:57;;;;;;;2.65;0.90;;;20.40;63.60;;;;;;4841452;29;20546;-74
2021/05/18 14:22:25;;;;;;;2.22;0.98;;;19.70;64.30;;;;;;4840471;29;20076;-77
2021/05/18 14:25:10;;;;;;;2.47;0.93;;;19.10;65.60;;;;;;4852089;29;20151;-75
2021/05/18 14:27:56;;;;;;;2.47;0.80;;;18.60;66.40;;;;;;4840259;29;20076;-76
2021/05/18 14:30:23;;;;;;;2.58;0.88;;;18.20;67.40;;;;;;4840773;29;20192;-74
2021/05/18 14:32:50;;;;;;;2.35;0.90;;;18.20;66.30;;;;;;4835250;29;20073;-75
2021/05/18 14:35:18;;;;;;;2.78;0.90;;;19.00;65.70;;;;;;4823706;29;20149;-73
2021/05/18 14:37:50;;;;;;;2.30;0.93;;;19.00;65.90;;;;;;4806070;29;20050;-73
2021/05/18 14:42:57;;;;;;;2.30;0.77;;;18.60;65.50;;;;;;4840249;29;19924;-73
2021/05/18 14:45:31;;;;;;;1.67;0.60;;;19.20;65.10;;;;;;4851044;29;20038;-73
2021/05/18 14:56:15;;;;;;;0.88;0.40;;;19.60;61.90;;;;;;4771462;29;20128;-74
2021/05/18 14:58:43;;;;;;;1.63;0.60;;;19.20;61.70;;;;;;4835410;29;20068;-72
2021/05/18 15:01:10;;;;;;;1.05;0.50;;;18.90;60.30;;;;;;4806975;29;20052;-76
2021/05/18 15:03:37;;;;;;;0.73;0.40;;;19.60;58.80;;;;;;4832885;29;20045;-76
2021/05/18 15:06:04;;;;;;;0.77;0.35;;;19.90;59.00;;;;;;4835924;29;20076;-76
2021/05/18 15:08:36;;;;;;;2.35;0.52;;;19.70;59.30;;;;;;4850417;29;20057;-75
2021/05/18 15:11:04;;;;;;;1.23;0.38;;;19.40;60.00;;;;;;4841492;29;20084;-75
2021/05/18 15:13:33;;;;;;;1.13;0.45;;;19.20;60.50;;;;;;4808724;29;20029;-75
2021/05/18 15:16:02;;;;;;;1.05;0.40;;;19.70;60.20;;;;;;4804820;29;20125;-75
2021/05/18 15:18:31;;;;;;;0.98;0.30;;;20.50;58.80;;;;;;4836748;29;20132;-75
2021/05/18 15:20:58;;;;;;;1.95;0.50;;;20.20;58.30;;;;;;4825366;29;20072;-74
2021/05/18 15:23:28;;;;;;;2.30;0.75;;;19.70;56.10;;;;;;4821076;29;20038;-74
2021/05/18 15:25:56;;;;;;;1.35;0.40;;;19.10;55.50;;;;;;4835032;29;20437;-74
2021/05/18 15:28:23;;;;;;;1.88;0.38;;;18.50;56.30;;;;;;4856205;29;20044;-74
2021/05/18 15:30:50;;;;;;;1.98;0.50;;;18.20;57.50;;;;;;4838434;29;20140;-74
2021/05/18 15:33:17;;;;;;;2.30;0.55;;;18.20;58.70;;;;;;4823344;29;20432;-75
2021/05/18 15:35:44;;;;;;;2.53;0.80;;;18.20;58.60;;;;;;4812343;29;20046;-75
2021/05/18 15:38:11;;;;;;;2.58;0.50;;;18.20;58.10;;;;;;4857552;29;20546;-76
2021/05/18 15:40:39;;;;;;;1.58;0.50;;;18.50;57.80;;;;;;4833333;29;20050;-76
2021/05/18 15:43:06;;;;;;;2.03;0.40;;;18.50;58.00;;;;;;4827873;29;20136;-80
2021/05/18 15:45:33;;;;;;;0.80;0.40;;;19.40;57.60;;;;;;4843116;29;20506;-76
2021/05/18 15:48:00;;;;;;;1.08;0.40;;;20.80;56.70;;;;;;4835991;29;20064;-79
2021/05/18 15:50:27;;;;;;;0.52;0.20;;;22.30;54.20;;;;;;4840745;29;20041;-76
2021/05/18 15:52:54;;;;;;;0.93;0.40;;;23.30;51.70;;;;;;4816188;29;20044;-76
2021/05/18 15:55:21;;;;;;;2.30;0.50;;;23.90;49.30;;;;;;4815453;29;20058;-76
2021/05/18 15:57:48;;;;;;;0.60;0.30;;;24.20;48.20;;;;;;4842645;29;20045;-78
2021/05/18 16:00:16;;;;;;;1.90;0.55;;;24.50;46.60;;;;;;4826435;29;20042;-75
2021/05/18 16:02:43;;;;;;;1.60;0.57;;;23.80;45.60;;;;;;4830995;29;20052;-75
2021/05/18 16:05:10;;;;;;;0.77;0.30;;;23.60;46.50;;;;;;4861365;29;20046;-75
2021/05/18 16:07:41;;;;;;;1.33;0.70;;;23.70;43.80;;;;;;4845120;29;20048;-75
2021/05/18 16:10:08;;;;;;;1.85;0.40;;;23.80;44.10;;;;;;4859145;29;20049;-75
2021/05/18 16:12:35;;;;;;;1.08;0.40;;;24.10;44.00;;;;;;4844563;29;20065;-75
2021/05/18 16:15:03;;;;;;;1.45;0.50;;;24.60;44.80;;;;;;4846189;29;20045;-75
2021/05/18 16:17:30;;;;;;;2.05;0.30;;;25.10;43.20;;;;;;4859278;29;20046;-75
2021/05/18 16:19:57;;;;;;;2.45;0.52;;;25.20;43.70;;;;;;4841509;29;20045;-73
2021/05/18 16:22:24;;;;;;;2.00;0.30;;;24.50;44.10;;;;;;4839622;29;20046;-75
2021/05/18 16:24:52;;;;;;;1.25;0.50;;;23.50;45.10;;;;;;4841476;29;20041;-75
2021/05/18 16:27:19;;;;;;;1.67;0.40;;;23.20;44.20;;;;;;4812871;29;20120;-75
2021/05/18 16:29:47;;;;;;;1.30;0.30;;;23.60;44.50;;;;;;4827473;29;20045;-76
2021/05/18 16:32:14;;;;;;;1.08;0.38;;;24.00;44.40;;;;;;4860811;29;20094;-77
2021/05/18 16:34:41;;;;;;;0.82;0.30;;;24.10;44.60;;;;;;4843363;29;20056;-73
2021/05/18 16:37:08;;;;;;;0.77;0.30;;;23.60;45.50;;;;;;4840883;29;20053;-74
2021/05/18 16:39:36;;;;;;;0.20;0.17;;;23.50;45.10;;;;;;4853619;29;20056;-74
2021/05/18 16:42:03;;;;;;;0.63;0.20;;;22.80;46.50;;;;;;4839502;29;20038;-75
2021/05/18 16:44:30;;;;;;;0.73;0.20;;;22.50;47.30;;;;;;4855421;29;20090;-73
2021/05/18 16:46:57;;;;;;;0.40;0.20;;;22.60;46.10;;;;;;4842758;29;20573;-73
2021/05/18 16:49:25;;;;;;;0.77;0.20;;;22.00;47.20;;;;;;4845151;29;20541;-73
2021/05/18 16:51:56;;;;;;;0.65;0.20;;;21.30;48.10;;;;;;4814071;29;20106;-73
2021/05/18 16:54:24;;;;;;;1.48;0.40;;;21.20;49.10;;;;;;4844460;29;20041;-74
2021/05/18 16:56:52;;;;;;;1.27;0.38;;;22.20;47.80;;;;;;4841039;29;20072;-72
2021/05/18 16:59:19;;;;;;;4.28;1.38;;;22.90;45.60;;;;;;4825366;29;20045;-74
2021/05/18 17:01:48;;;;;;;1.27;0.60;;;23.30;45.30;;;;;;4842074;29;20049;-72
2021/05/18 17:04:17;;;;;;;1.45;0.50;;;23.10;45.50;;;;;;4828027;29;20052;-72
2021/05/18 17:06:46;;;;;;;1.55;0.40;;;22.40;45.90;;;;;;4843024;29;20038;-77
2021/05/18 17:09:13;;;;;;;0.43;0.20;;;21.70;47.50;;;;;;4844521;29;20068;-75
2021/05/18 17:11:42;;;;;;;1.00;0.40;;;21.80;47.90;;;;;;4821402;29;20050;-76
2021/05/18 17:14:11;;;;;;;0.80;0.40;;;22.30;47.30;;;;;;4828180;29;20422;-76
2021/05/18 17:16:39;;;;;;;0.52;0.20;;;22.70;45.90;;;;;;4861359;29;20041;-78
2021/05/18 17:19:07;;;;;;;3.90;0.45;;;22.80;45.50;;;;;;4836824;29;20054;-72
2021/05/18 17:21:35;;;;;;;1.73;0.20;;;22.10;45.90;;;;;;4844549;29;20078;-76
2021/05/18 17:24:03;;;;;;;1.00;0.30;;;21.10;46.70;;;;;;4827441;29;20235;-75
2021/05/18 17:26:30;;;;;;;0.55;0.20;;;20.20;48.10;;;;;;4822698;29;20053;-76
2021/05/18 17:28:57;;;;;;;1.02;0.30;;;19.50;49.50;;;;;;4861066;29;20681;-75
2021/05/18 17:31:24;;;;;;;1.05;0.40;;;19.00;50.20;;;;;;4829877;29;20042;-75
2021/05/18 17:33:51;;;;;;;2.08;0.50;;;18.60;51.00;;;;;;4828211;29;20049;-75
2021/05/18 17:36:19;;;;;;;1.88;0.60;;;18.80;50.40;;;;;;4826023;29;20128;-76
2021/05/18 17:38:47;;;;;;;1.63;0.40;;;18.60;51.10;;;;;;4833673;29;20046;-75
2021/05/18 17:41:16;;;;;;;3.47;0.60;;;18.30;51.20;;;;;;4828840;29;20050;-75
2021/05/18 17:43:44;;;;;;;1.23;0.45;;;18.20;51.70;;;;;;4844914;29;20045;-75
2021/05/18 17:46:11;;;;;;;0.98;0.30;;;18.80;51.50;;;;;;4858452;29;20109;-76
2021/05/18 17:48:38;;;;;;;1.70;0.38;;;19.70;50.50;;;;;;4825733;29;20510;-77
2021/05/18 17:51:07;;;;;;;1.15;0.40;;;20.50;49.50;;;;;;4842258;29;20572;-77
2021/05/18 17:53:34;;;;;;;1.85;0.32;;;21.10;49.10;;;;;;4815335;29;20041;-76
2021/05/18 17:56:02;;;;;;;1.60;0.50;;;21.30;48.70;;;;;;4843804;29;20049;-76
2021/05/18 17:58:29;;;;;;;2.28;0.70;;;21.50;48.90;;;;;;4844130;29;20510;-76
2021/05/18 18:00:56;;;;;;;2.15;1.48;;;21.80;48.90;;;;;;4844242;29;20171;-76
2021/05/18 18:03:23;;;;;;;0.80;0.30;;;22.20;49.00;;;;;;4856834;29;20041;-74
2021/05/18 18:05:52;;;;;;;1.95;0.50;;;22.40;48.70;;;;;;4826786;29;20049;-74
2021/05/18 18:08:22;;;;;;;0.93;0.30;;;21.70;48.20;;;;;;4857158;29;20435;-77
2021/05/18 18:10:50;;;;;;;2.92;0.30;;;20.80;49.70;;;;;;4859673;29;20049;-76
2021/05/18 18:13:18;;;;;;;0.50;0.25;;;19.90;50.50;;;;;;4843844;29;20132;-76